Crikvenica, Croatia

12:48 PM CET on March 04, 2015 (GMT +0100)
Selce | Change Station
CLOSE
Current Station
Personal Weather Station
Location: Selce, CRIKVENICA
Elevation: 174 ft
Nearby Weather Stations

Elev 174 ft 45.16 °N, 14.72 °E | Updated 3 minutes ago

Mostly Cloudy
Mostly Cloudy
48.0 °F
Feels Like 48 °F
N
0.0
Wind Variable Wind from North
Gusts 0.0 mph

Today
High -- | Low -- °F
--% Chance of Precip.
Yesterday
High -- | Low -- °F
Precip. -- in
6:34 AM 5:51 PM
Waxing Gibbous, 99% visible
Pressure 30.12 in
Visibility 6.2 miles
Clouds Scattered Clouds 1400 ft
Mostly Cloudy 1700 ft
Windchill 48 °F
Dew Point 43 °F
Humidity 83%
Rainfall 0.08 in
Snow Depth Not available.
UV 3 out of 12
Pollen Not available.
Air Quality Not available.
Flu Activity Not available.
METAR LDPL 041130Z 10007KT 070V150 9999 SCT014 BKN017 11/07 Q1020 NOSIG

More Conditions Fewer Conditions

Pressure 30.12 in
Visibility 6.2 miles
Clouds Scattered Clouds 1400 ft
Mostly Cloudy 1700 ft
Windchill 48 °F
Dew Point 43 °F
Humidity 83%
Rainfall 0.08 in
Snow Depth Not available.
UV 3 out of 12
Pollen Not available.
Air Quality Not available.
Flu Activity Not available.
METAR LDPL 041130Z 10007KT 070V150 9999 SCT014 BKN017 11/07 Q1020 NOSIG

More Conditions Fewer Conditions

10-Day Weather Forecast

Almanac

Astronomy

Mar. 04, 2015 Rise Set
Actual Time
Civil Twilight
Nautical Twilight
Astronomical Twilight
Moon
Length of Visible Light
Length of Day
Tomorrow will be .
, % of the Moon is Illuminated

Today's Extremes

Country Highs Country Lows

Community

WunderPhotos

Upload Photos

1,802,435 photos uploaded!

WunderBlogs® & News

Nearby

Air Quality

  Air Quality AQ Index Pollutant
Not available.

Snow Depth

Station Depth Elevation

Earthquake Activity

City Distance Mag. Time & Date
Minimum magnitude displayed is 2.5.

Coastal Water Temperatures

Place Temperature

Nearby Weather Stations